Terminal Aerodrome Forecast
Issued by NWS Tampa Bay Area, FL

Home | Current Version | Previous Version | Text Only | Print | Product List | Glossary On
Versions: 1 2 3 4 5 6 7 8 9 10 11 12 13 14 15 16 17 18 19 20 21 22 23 24 25 26 27 28
000
FTUS42 KTBW 010858 AAA
TAFTPA
TAF AMD
KTPA 010858Z 0109/0206 VRB03KT P6SM FEW015 BKN200
     FM011500 19006KT P6SM VCTS SCT025CB BKN100 BKN250
     FM012000 22008KT P6SM VCTS SCT030CB BKN200
     FM020200 VRB04KT P6SM SCT035 BKN200=

USA.gov is the U.S. government's official web portal to all federal, state and local government web resources and services.